createdAt,value
2019-02-25T00:02:30.895Z,21.20
2019-02-25T00:05:01.367Z,19.13
2019-02-25T00:07:31.867Z,19.37
2019-02-25T00:10:02.345Z,19.47
2019-02-25T00:12:32.847Z,20.23
2019-02-25T00:15:03.469Z,20.43
2019-02-25T00:17:34.138Z,22.97
2019-02-25T00:20:04.878Z,21.30
2019-02-25T00:22:35.338Z,23.40
2019-02-25T00:25:06.103Z,24.80
2019-02-25T00:27:36.574Z,23.33
2019-02-25T00:30:08.053Z,21.33
2019-02-25T00:32:38.511Z,21.03
2019-02-25T00:35:09.229Z,21.70
2019-02-25T00:37:39.694Z,20.77
2019-02-25T00:40:10.389Z,19.90
2019-02-25T00:42:40.937Z,20.73
2019-02-25T00:45:11.690Z,18.83
2019-02-25T00:47:42.158Z,16.80
2019-02-25T00:50:13.568Z,17.23
2019-02-25T00:52:44.082Z,15.00
2019-02-25T00:55:14.974Z,14.73
2019-02-25T00:57:45.604Z,15.00
2019-02-25T01:00:16.962Z,13.57
2019-02-25T01:02:47.461Z,13.30
2019-02-25T01:05:18.133Z,14.27
2019-02-25T01:07:48.750Z,11.53
2019-02-25T01:10:19.434Z,11.23
2019-02-25T01:12:50.040Z,10.57
2019-02-25T01:15:20.502Z,9.97
2019-02-25T01:17:51.097Z,8.83
2019-02-25T01:20:21.688Z,8.77
2019-02-25T01:22:52.244Z,8.93
2019-02-25T01:25:22.750Z,9.17
2019-02-25T01:27:53.268Z,8.83
2019-02-25T01:30:24.030Z,8.67
2019-02-25T01:32:54.490Z,8.87
2019-02-25T01:35:25.199Z,9.10
2019-02-25T01:37:55.698Z,8.00
2019-02-25T01:40:26.257Z,8.57
2019-02-25T01:42:56.744Z,8.27
2019-02-25T01:45:27.344Z,8.13
2019-02-25T01:47:57.803Z,8.00
2019-02-25T01:50:28.322Z,7.87
2019-02-25T01:52:58.775Z,7.97
2019-02-25T01:55:29.237Z,8.13
2019-02-25T01:57:59.736Z,7.57
2019-02-25T02:00:30.299Z,9.90
2019-02-25T02:03:00.764Z,8.87
2019-02-25T02:05:31.306Z,9.03
2019-02-25T02:08:01.808Z,8.40
2019-02-25T02:10:32.262Z,8.70
2019-02-25T02:13:02.776Z,8.97
2019-02-25T02:15:33.220Z,8.80
2019-02-25T02:18:03.681Z,8.87
2019-02-25T02:20:34.187Z,8.93
2019-02-25T02:23:04.666Z,8.93
2019-02-25T02:25:35.165Z,8.07
2019-02-25T02:28:05.826Z,8.67
2019-02-25T02:30:36.381Z,8.23
2019-02-25T02:33:06.938Z,9.57
2019-02-25T02:35:37.411Z,8.97
2019-02-25T02:38:07.925Z,8.70
2019-02-25T02:40:38.446Z,8.50
2019-02-25T02:43:08.957Z,8.80
2019-02-25T02:45:51.843Z,8.83
2019-02-25T02:48:26.668Z,8.07
2019-02-25T02:50:57.121Z,7.60
2019-02-25T02:53:27.616Z,7.60
2019-02-25T02:55:58.059Z,7.90
2019-02-25T02:58:28.567Z,8.10
2019-02-25T03:00:59.025Z,8.47
2019-02-25T03:03:29.488Z,7.93
2019-02-25T03:05:59.986Z,8.03
2019-02-25T03:08:30.444Z,7.90
2019-02-25T03:11:00.951Z,8.33
2019-02-25T03:13:31.434Z,7.90
2019-02-25T03:16:02.034Z,8.60
2019-02-25T03:18:32.493Z,8.77
2019-02-25T03:21:02.995Z,8.73
2019-02-25T03:23:33.445Z,9.07
2019-02-25T03:26:03.948Z,9.93
2019-02-25T03:28:34.429Z,10.43
2019-02-25T03:31:05.095Z,12.53
2019-02-25T03:33:35.600Z,11.90
2019-02-25T03:36:06.097Z,12.20
2019-02-25T03:38:36.603Z,11.77
2019-02-25T03:41:07.118Z,11.70
2019-02-25T03:43:37.619Z,12.17
2019-02-25T03:46:08.107Z,11.37
2019-02-25T03:48:38.578Z,12.47
2019-02-25T03:51:09.083Z,12.43
2019-02-25T03:53:39.560Z,13.27
2019-02-25T03:56:10.101Z,11.97
2019-02-25T03:58:40.661Z,11.10
2019-02-25T04:01:11.395Z,11.07
2019-02-25T04:03:41.871Z,10.10
2019-02-25T04:06:12.826Z,10.30
2019-02-25T04:08:43.548Z,10.47
2019-02-25T04:11:14.066Z,11.10
2019-02-25T04:13:44.588Z,10.30
2019-02-25T04:16:15.064Z,11.17
2019-02-25T04:18:45.566Z,10.97
2019-02-25T04:21:16.037Z,11.23
2019-02-25T04:23:46.523Z,10.83
2019-02-25T04:26:17.010Z,10.37
2019-02-25T04:28:47.513Z,9.60
2019-02-25T04:31:17.972Z,9.87
2019-02-25T04:33:48.487Z,10.33
2019-02-25T04:36:19.009Z,11.20
2019-02-25T04:38:49.487Z,11.07
2019-02-25T04:41:19.997Z,11.37
2019-02-25T04:43:50.471Z,11.50
2019-02-25T04:46:20.993Z,11.37
2019-02-25T04:48:51.470Z,11.83
2019-02-25T04:51:21.971Z,12.20
2019-02-25T04:53:52.442Z,10.83
2019-02-25T04:56:25.262Z,11.87
2019-02-25T04:58:55.148Z,11.33
2019-02-25T05:01:25.619Z,12.13
2019-02-25T05:03:56.140Z,11.13
2019-02-25T05:06:26.687Z,11.97
2019-02-25T05:08:57.147Z,12.37
2019-02-25T05:11:31.811Z,13.00
2019-02-25T05:14:02.276Z,13.73
2019-02-25T05:16:32.832Z,13.23
2019-02-25T05:19:03.309Z,13.50
2019-02-25T05:21:33.782Z,11.93
2019-02-25T05:24:04.289Z,11.97
2019-02-25T05:26:34.786Z,12.67
2019-02-25T05:29:05.299Z,14.63
2019-02-25T05:31:35.766Z,12.77
2019-02-25T05:34:06.271Z,12.57
2019-02-25T05:36:36.745Z,12.97
2019-02-25T05:39:09.541Z,12.13
2019-02-25T05:41:39.995Z,13.47
2019-02-25T05:44:10.508Z,16.40
2019-02-25T05:46:41.058Z,16.10
2019-02-25T05:49:11.562Z,15.20
2019-02-25T05:51:42.078Z,14.87
2019-02-25T05:54:12.571Z,14.90
2019-02-25T05:56:43.810Z,13.93
2019-02-25T05:59:14.428Z,14.23
2019-02-25T06:01:44.910Z,13.93
2019-02-25T06:04:15.459Z,15.23
2019-02-25T06:06:45.980Z,14.57
2019-02-25T06:09:18.328Z,13.73
2019-02-25T06:11:49.062Z,13.93
2019-02-25T06:14:20.849Z,13.43
2019-02-25T06:16:51.459Z,11.97
2019-02-25T06:19:22.015Z,13.50
2019-02-25T06:21:52.970Z,12.27
2019-02-25T06:24:23.649Z,12.60
2019-02-25T06:26:54.666Z,13.07
2019-02-25T06:29:25.625Z,13.63
2019-02-25T06:31:56.211Z,13.00
2019-02-25T06:34:27.562Z,12.30
2019-02-25T06:36:58.081Z,11.80
2019-02-25T06:39:28.748Z,12.57
2019-02-25T06:41:59.255Z,13.60
2019-02-25T06:44:29.779Z,11.90
2019-02-25T06:47:00.315Z,13.00
2019-02-25T06:49:30.868Z,12.70
2019-02-25T06:52:01.411Z,12.27
2019-02-25T06:54:31.998Z,12.40
2019-02-25T06:57:02.465Z,12.13
2019-02-25T06:59:33.123Z,12.00
2019-02-25T07:02:03.612Z,13.50
2019-02-25T07:04:54.720Z,13.60
2019-02-25T07:07:46.789Z,12.37
2019-02-25T07:10:34.558Z,12.90
2019-02-25T07:13:33.176Z,13.60
2019-02-25T07:16:16.594Z,13.10
2019-02-25T07:19:05.932Z,11.77
2019-02-25T07:21:48.485Z,11.10
2019-02-25T07:24:38.277Z,11.70
2019-02-25T07:27:19.569Z,11.33
2019-02-25T07:30:08.895Z,11.97
2019-02-25T07:33:13.373Z,11.27
2019-02-25T07:35:53.875Z,10.37
2019-02-25T07:38:43.237Z,9.30
2019-02-25T07:41:33.119Z,9.60
2019-02-25T07:44:16.790Z,10.70
2019-02-25T07:47:15.373Z,10.77
2019-02-25T07:50:07.570Z,10.57
2019-02-25T07:52:59.998Z,10.50
2019-02-25T07:56:02.262Z,10.10
2019-02-25T07:58:45.197Z,10.43
2019-02-25T08:01:29.737Z,9.90
2019-02-25T08:04:27.346Z,9.23
2019-02-25T08:07:19.720Z,9.00
2019-02-25T08:10:18.196Z,9.50
2019-02-25T08:13:07.516Z,9.00
2019-02-25T08:15:47.767Z,9.27
2019-02-25T08:18:26.806Z,10.60
2019-02-25T08:21:17.028Z,10.33
2019-02-25T08:23:55.413Z,10.67
2019-02-25T08:26:43.283Z,10.23
2019-02-25T08:29:32.641Z,11.33
2019-02-25T08:32:25.096Z,11.17
2019-02-25T08:35:29.755Z,11.00
2019-02-25T08:38:24.965Z,11.63
2019-02-25T08:41:20.670Z,12.10
2019-02-25T08:44:04.205Z,11.97
2019-02-25T08:46:53.566Z,12.30
2019-02-25T08:49:36.556Z,11.50
2019-02-25T08:52:07.170Z,12.00
2019-02-25T08:54:37.787Z,12.77
2019-02-25T08:57:08.342Z,12.83
2019-02-25T08:59:39.029Z,12.00
2019-02-25T09:02:09.768Z,12.00
2019-02-25T09:04:42.999Z,11.93
2019-02-25T09:07:13.474Z,12.30
2019-02-25T09:09:44.101Z,11.80
2019-02-25T09:12:14.677Z,11.17
2019-02-25T09:14:45.175Z,11.07
2019-02-25T09:17:16.182Z,12.17
2019-02-25T09:19:46.681Z,11.90
2019-02-25T09:22:17.423Z,12.80
2019-02-25T09:24:48.028Z,12.97
2019-02-25T09:27:18.488Z,12.83
2019-02-25T09:29:49.006Z,13.00
2019-02-25T09:32:19.515Z,12.53
2019-02-25T09:34:50.033Z,13.37
2019-02-25T09:37:20.643Z,14.23
2019-02-25T09:39:52.002Z,14.87
2019-02-25T09:42:22.644Z,14.63
2019-02-25T09:44:53.204Z,14.70
2019-02-25T09:47:23.843Z,14.47
2019-02-25T09:49:54.317Z,11.83
2019-02-25T09:52:27.631Z,12.60
2019-02-25T09:54:58.166Z,14.60
2019-02-25T09:57:28.643Z,14.23
2019-02-25T09:59:59.205Z,14.03
2019-02-25T10:02:29.744Z,14.10
2019-02-25T10:05:00.295Z,13.90
2019-02-25T10:07:30.734Z,13.93
2019-02-25T10:10:01.255Z,14.07
2019-02-25T10:12:31.779Z,14.50
2019-02-25T10:15:02.263Z,16.20
2019-02-25T10:17:32.785Z,14.07
2019-02-25T10:20:03.291Z,14.57
2019-02-25T10:22:33.780Z,14.97
2019-02-25T10:25:04.631Z,13.33
2019-02-25T10:27:35.141Z,14.00
2019-02-25T10:30:06.505Z,13.40
2019-02-25T10:32:37.061Z,10.03
2019-02-25T10:35:09.544Z,9.37
2019-02-25T10:37:41.375Z,10.40
2019-02-25T10:40:15.223Z,9.77
2019-02-25T10:42:45.800Z,11.37
2019-02-25T10:45:17.078Z,11.13
2019-02-25T10:47:49.501Z,12.60
2019-02-25T10:50:20.138Z,11.40
2019-02-25T10:52:50.751Z,11.23
2019-02-25T10:55:28.162Z,12.53
2019-02-25T10:57:59.793Z,10.70
2019-02-25T11:00:30.946Z,10.03
2019-02-25T11:03:02.145Z,10.87
2019-02-25T11:05:32.822Z,10.90
2019-02-25T11:08:05.832Z,10.80
2019-02-25T11:10:44.109Z,11.80
2019-02-25T11:13:15.484Z,13.67
2019-02-25T11:15:48.152Z,12.93
2019-02-25T11:18:20.285Z,13.30
2019-02-25T11:20:50.422Z,12.70
2019-02-25T11:23:21.622Z,13.70
2019-02-25T11:25:53.706Z,13.60
2019-02-25T11:28:26.038Z,14.60
2019-02-25T11:30:56.744Z,15.20
2019-02-25T11:33:29.638Z,14.27
2019-02-25T11:35:59.562Z,14.67
2019-02-25T11:38:31.276Z,13.90
2019-02-25T11:41:04.178Z,12.17
2019-02-25T11:43:34.450Z,12.37
2019-02-25T11:46:05.027Z,10.37
2019-02-25T11:48:35.553Z,11.40
2019-02-25T11:51:06.070Z,11.93
2019-02-25T11:53:36.690Z,12.20
2019-02-25T11:56:07.310Z,13.47
2019-02-25T11:58:37.910Z,13.37
2019-02-25T12:01:08.415Z,13.27
2019-02-25T12:03:39.056Z,14.73
2019-02-25T12:06:09.566Z,13.10
2019-02-25T12:08:40.060Z,12.77
2019-02-25T12:11:10.526Z,13.43
2019-02-25T12:13:41.064Z,13.37
2019-02-25T12:16:11.588Z,10.87
2019-02-25T12:18:42.063Z,10.50
2019-02-25T12:21:12.608Z,9.73
2019-02-25T12:23:43.222Z,9.43
2019-02-25T12:26:13.714Z,11.60
2019-02-25T12:28:44.237Z,12.40
2019-02-25T12:31:15.007Z,13.23
2019-02-25T12:33:45.529Z,13.77
2019-02-25T12:36:16.071Z,11.77
2019-02-25T12:38:46.541Z,14.30
2019-02-25T12:41:17.079Z,12.83
2019-02-25T12:43:47.611Z,10.20
2019-02-25T12:46:18.203Z,10.07
2019-02-25T12:48:48.677Z,10.13
2019-02-25T12:51:19.299Z,9.73
2019-02-25T12:53:49.834Z,9.10
2019-02-25T12:56:20.391Z,8.47
2019-02-25T12:58:50.885Z,7.07
2019-02-25T13:01:21.426Z,8.20
2019-02-25T13:03:51.946Z,10.23
2019-02-25T13:06:22.417Z,12.30
2019-02-25T13:08:52.992Z,10.20
2019-02-25T13:11:24.468Z,11.40
2019-02-25T13:13:55.058Z,12.20
2019-02-25T13:16:25.541Z,11.83
2019-02-25T13:18:56.012Z,11.57
2019-02-25T13:21:26.539Z,13.43
2019-02-25T13:23:59.309Z,12.27
2019-02-25T13:26:31.572Z,11.13
2019-02-25T13:29:01.461Z,10.47
2019-02-25T13:31:31.949Z,12.20
2019-02-25T13:34:02.567Z,11.17
2019-02-25T13:36:33.085Z,11.57
2019-02-25T13:39:03.937Z,13.00
2019-02-25T13:41:34.445Z,10.27
2019-02-25T13:44:05.246Z,10.40
2019-02-25T13:46:35.708Z,9.87
2019-02-25T13:49:06.250Z,8.40
2019-02-25T13:51:36.722Z,10.07
2019-02-25T13:54:07.223Z,9.60
2019-02-25T13:56:37.725Z,9.43
2019-02-25T13:59:08.219Z,9.80
2019-02-25T14:01:38.708Z,9.13
2019-02-25T14:04:12.340Z,9.70
2019-02-25T14:06:42.889Z,8.80
2019-02-25T14:09:13.389Z,8.83
2019-02-25T14:11:43.919Z,10.13
2019-02-25T14:14:14.906Z,11.03
2019-02-25T14:16:45.518Z,10.87
2019-02-25T14:19:16.001Z,10.70
2019-02-25T14:21:46.675Z,10.87
2019-02-25T14:24:18.511Z,10.33
2019-02-25T14:26:54.491Z,9.80
2019-02-25T14:29:26.450Z,9.67
2019-02-25T14:31:57.142Z,9.23
2019-02-25T14:34:27.792Z,11.67
2019-02-25T14:36:59.743Z,10.77
2019-02-25T14:39:32.723Z,10.27
2019-02-25T14:42:06.871Z,10.33
2019-02-25T14:44:41.167Z,10.07
2019-02-25T14:47:20.555Z,9.83
2019-02-25T14:49:50.100Z,10.33
2019-02-25T14:52:21.813Z,9.80
2019-02-25T14:54:52.946Z,9.67
2019-02-25T14:57:24.811Z,10.50
2019-02-25T14:59:55.786Z,9.43
2019-02-25T15:02:26.288Z,9.70
2019-02-25T15:04:56.886Z,9.43
2019-02-25T15:07:27.525Z,9.37
2019-02-25T15:09:59.974Z,9.80
2019-02-25T15:12:32.084Z,10.07
2019-02-25T15:15:04.699Z,9.57
2019-02-25T15:17:35.017Z,9.63
2019-02-25T15:20:06.079Z,9.37
2019-02-25T15:22:36.819Z,10.00
2019-02-25T15:25:10.125Z,9.60
2019-02-25T15:27:40.761Z,9.83
2019-02-25T15:30:16.684Z,9.57
2019-02-25T15:32:55.672Z,9.03
2019-02-25T15:35:19.407Z,9.97
2019-02-25T15:37:50.735Z,10.07
2019-02-25T15:40:25.534Z,9.57
2019-02-25T15:43:04.885Z,8.50
2019-02-25T15:45:38.334Z,9.30
2019-02-25T15:48:18.291Z,9.53
2019-02-25T15:50:52.950Z,10.13
2019-02-25T15:53:23.651Z,9.30
2019-02-25T15:55:56.923Z,9.73
2019-02-25T15:58:26.422Z,9.43
2019-02-25T16:00:57.020Z,8.77
2019-02-25T16:03:27.847Z,8.97
2019-02-25T16:06:01.667Z,9.53
2019-02-25T16:08:31.131Z,9.40
2019-02-25T16:11:03.083Z,9.20
2019-02-25T16:13:33.908Z,9.77
2019-02-25T16:16:06.059Z,9.60
2019-02-25T16:18:36.619Z,10.57
2019-02-25T16:21:07.500Z,10.50
2019-02-25T16:23:40.703Z,10.87
2019-02-25T16:26:11.178Z,10.80
2019-02-25T16:28:42.689Z,12.13
2019-02-25T16:31:14.791Z,11.03
2019-02-25T16:33:46.972Z,10.70
2019-02-25T16:36:17.722Z,10.80
2019-02-25T16:38:51.263Z,10.10
2019-02-25T16:41:27.083Z,11.13
2019-02-25T16:43:52.571Z,10.60
2019-02-25T16:46:23.927Z,10.63
2019-02-25T16:48:55.146Z,10.47
2019-02-25T16:51:28.115Z,10.57
2019-02-25T16:53:59.050Z,10.70
2019-02-25T16:56:29.953Z,12.53
2019-02-25T16:59:11.107Z,14.03
2019-02-25T17:01:41.723Z,14.70
2019-02-25T17:04:15.912Z,15.13
2019-02-25T17:06:44.596Z,14.33
2019-02-25T17:09:20.445Z,14.67
2019-02-25T17:11:51.053Z,14.00
2019-02-25T17:14:23.402Z,12.97
2019-02-25T17:16:56.615Z,14.43
2019-02-25T17:19:26.097Z,13.67
2019-02-25T17:21:56.641Z,14.37
2019-02-25T17:24:28.130Z,13.57
2019-02-25T17:27:00.051Z,12.57
2019-02-25T17:29:33.576Z,11.93
2019-02-25T17:32:04.509Z,12.43
2019-02-25T17:34:36.716Z,12.27
2019-02-25T17:37:08.581Z,11.73
2019-02-25T17:39:39.860Z,12.87
2019-02-25T17:42:10.838Z,12.03
2019-02-25T17:44:41.737Z,10.50
2019-02-25T17:47:13.303Z,9.70
2019-02-25T17:49:44.789Z,9.37
2019-02-25T17:52:16.817Z,9.70
2019-02-25T17:54:48.738Z,9.13
2019-02-25T17:57:20.136Z,8.90
2019-02-25T17:59:52.729Z,8.93
2019-02-25T18:02:23.777Z,9.17
2019-02-25T18:04:55.318Z,8.77
2019-02-25T18:07:27.594Z,9.23
2019-02-25T18:09:59.033Z,8.83
2019-02-25T18:12:31.872Z,8.33
2019-02-25T18:15:03.583Z,8.57
2019-02-25T18:17:36.312Z,8.43
2019-02-25T18:20:08.610Z,7.87
2019-02-25T18:22:39.464Z,7.23
2019-02-25T18:25:10.304Z,7.23
2019-02-25T18:27:41.520Z,7.50
2019-02-25T18:30:13.992Z,7.80
2019-02-25T18:32:45.155Z,7.87
2019-02-25T18:35:16.815Z,7.30
2019-02-25T18:37:48.532Z,7.63
2019-02-25T18:40:20.679Z,7.80
2019-02-25T18:42:51.462Z,7.93
2019-02-25T18:45:22.288Z,7.70
2019-02-25T18:47:53.148Z,7.90
2019-02-25T18:50:24.712Z,7.80
2019-02-25T18:52:57.193Z,7.57
2019-02-25T18:55:29.379Z,8.47
2019-02-25T18:58:00.882Z,7.73
2019-02-25T19:00:37.042Z,8.07
2019-02-25T19:03:07.942Z,7.70
2019-02-25T19:05:38.637Z,7.50
2019-02-25T19:08:17.186Z,8.47
2019-02-25T19:10:50.332Z,8.77
2019-02-25T19:13:22.720Z,10.33
2019-02-25T19:15:54.811Z,10.70
2019-02-25T19:18:25.244Z,11.83
2019-02-25T19:20:55.727Z,10.70
2019-02-25T19:23:26.376Z,10.33
2019-02-25T19:25:56.886Z,9.77
2019-02-25T19:28:28.057Z,10.63
2019-02-25T19:30:59.794Z,10.40
2019-02-25T19:33:31.295Z,9.80
2019-02-25T19:36:03.315Z,9.80
2019-02-25T19:38:36.180Z,10.67
2019-02-25T19:41:06.380Z,10.60
2019-02-25T19:43:36.884Z,10.00
2019-02-25T19:46:08.706Z,9.47
2019-02-25T19:48:40.288Z,9.60
2019-02-25T19:51:12.569Z,9.03
2019-02-25T19:53:44.814Z,9.67
2019-02-25T19:56:15.442Z,9.57
2019-02-25T19:58:45.913Z,10.10
2019-02-25T20:01:16.439Z,10.07
2019-02-25T20:03:47.740Z,10.37
2019-02-25T20:06:19.189Z,10.67
2019-02-25T20:08:51.127Z,9.83
2019-02-25T20:11:22.689Z,9.80
2019-02-25T20:13:53.144Z,9.53
2019-02-25T20:16:27.114Z,10.10
2019-02-25T20:18:56.380Z,10.27
2019-02-25T20:21:29.334Z,9.80
2019-02-25T20:24:00.197Z,11.50
2019-02-25T20:26:32.552Z,10.13
2019-02-25T20:29:04.146Z,10.10
2019-02-25T20:31:35.601Z,10.50
2019-02-25T20:34:06.230Z,10.33
2019-02-25T20:36:36.829Z,10.43
2019-02-25T20:39:07.610Z,10.43
2019-02-25T20:41:38.111Z,9.73
2019-02-25T20:44:09.906Z,10.00
2019-02-25T20:46:40.397Z,9.70
2019-02-25T20:49:14.232Z,9.77
2019-02-25T20:51:43.562Z,10.10
2019-02-25T20:54:17.786Z,10.30
2019-02-25T20:56:46.812Z,10.13
2019-02-25T20:59:18.496Z,10.80
2019-02-25T21:01:50.683Z,10.80
2019-02-25T21:04:22.271Z,11.07
2019-02-25T21:06:52.894Z,11.53
2019-02-25T21:09:23.538Z,10.17
2019-02-25T21:11:54.037Z,10.67
2019-02-25T21:14:24.536Z,10.77
2019-02-25T21:16:56.392Z,10.73
2019-02-25T21:19:27.214Z,9.47
2019-02-25T21:21:59.784Z,10.33
2019-02-25T21:24:31.141Z,10.13
2019-02-25T21:27:03.763Z,10.20
2019-02-25T21:29:36.527Z,10.53
2019-02-25T21:32:06.561Z,10.13
2019-02-25T21:34:37.028Z,9.63
2019-02-25T21:37:07.548Z,9.30
2019-02-25T21:39:38.660Z,9.67
2019-02-25T21:42:12.662Z,8.60
2019-02-25T21:44:46.171Z,8.70
2019-02-25T21:47:14.612Z,8.07
2019-02-25T21:49:45.063Z,7.70
2019-02-25T21:52:17.481Z,7.90
2019-02-25T21:54:47.744Z,7.30
2019-02-25T21:57:18.251Z,7.13
2019-02-25T21:59:48.748Z,7.17
2019-02-25T22:02:19.206Z,6.73
2019-02-25T22:04:51.475Z,6.57
2019-02-25T22:07:26.267Z,6.40
2019-02-25T22:09:54.055Z,7.40
2019-02-25T22:12:24.562Z,7.03
2019-02-25T22:14:55.075Z,7.17
2019-02-25T22:17:25.607Z,6.67
2019-02-25T22:19:56.057Z,7.30
2019-02-25T22:22:28.828Z,7.47
2019-02-25T22:25:04.057Z,7.60
2019-02-25T22:27:30.897Z,8.70
2019-02-25T22:30:04.221Z,8.67
2019-02-25T22:32:36.019Z,9.47
2019-02-25T22:35:07.565Z,9.03
2019-02-25T22:37:38.686Z,9.03
2019-02-25T22:40:12.293Z,8.70
2019-02-25T22:42:42.442Z,8.50
2019-02-25T22:45:16.266Z,8.20
2019-02-25T22:47:46.736Z,8.40
2019-02-25T22:50:17.293Z,9.13
2019-02-25T22:52:51.286Z,8.80
2019-02-25T22:55:20.771Z,7.93
2019-02-25T22:57:54.143Z,8.80
2019-02-25T23:00:42.185Z,8.27
2019-02-25T23:03:15.356Z,8.80
2019-02-25T23:05:47.973Z,9.07
2019-02-25T23:08:20.691Z,9.63
2019-02-25T23:10:51.661Z,9.23
2019-02-25T23:13:23.105Z,9.63
2019-02-25T23:15:54.764Z,10.27
2019-02-25T23:18:27.960Z,10.67
2019-02-25T23:21:00.114Z,11.40
2019-02-25T23:23:30.576Z,11.97
2019-02-25T23:26:01.654Z,12.87
2019-02-25T23:28:32.126Z,12.70
2019-02-25T23:31:02.725Z,12.20
2019-02-25T23:33:33.204Z,11.93
2019-02-25T23:36:03.679Z,12.13
2019-02-25T23:38:34.197Z,11.53
2019-02-25T23:41:05.415Z,11.07
2019-02-25T23:43:38.593Z,9.53
2019-02-25T23:46:09.067Z,10.10
2019-02-25T23:48:41.790Z,9.80
2019-02-25T23:51:12.445Z,9.67
2019-02-25T23:53:43.894Z,8.97
2019-02-25T23:56:18.210Z,8.90
2019-02-25T23:58:47.254Z,8.43
